Weather History for Algona, IA

Change the Weather History Date:

Friday, February 15, 2013

  Actual Average Record
Temperature  
Mean Temperature 16 °F -  
Max Temperature 21 °F 30 °F 44 °F (1999)
Min Temperature 10 °F 15 °F -13 °F (2007)
Degree Days  
Heating Degree Days 50    
Moisture  
Dew Point 9 °F    
Average Humidity 74    
Maximum Humidity 85    
Minimum Humidity 63    
Precipitation  
Precipitation 0.00 in - - ()
Sea Level Pressure  
Sea Level Pressure 30.26 in    
Wind  
Wind Speed 12 mph (NW)    
Max Wind Speed 17 mph    
Max Gust Speed 21 mph    
Visibility 10 miles    
Events Snow    
Averages and records for this station are not official NWS values.
T = Trace of Precipitation, MM = Missing Value Source: NWS Daily Summary

Daily Weather History Graph

Daily Weather History Graph

Search for Another Location

Airport:

Trip Planner

Search our weather history database for the weather conditions in past years. The results will help you decide how hot, cold, wet, or windy it might be!

Date:

Astronomy

Feb. 15, 2013 Rise Set
Actual Time 7:14 AM CST 5:48 PM CST
Civil Twilight 6:45 AM CST 6:17 PM CST
Nautical Twilight 6:11 AM CST 6:51 PM CST
Astronomical Twilight 5:39 AM CST 7:24 PM CST
Moon 9:40 AM CST (2/15) No Moon Set
Length of Visible Light 11h 32m
Length of Day
10h 34m
Waxing Crescent, 30% of the Moon is Illuminated
Feb 15
Waxing Crescent
Feb 17
First Quarter
Feb 25
Full
Mar 4
Last Quarter
Mar 11
New

Hourly Weather History & Observations

Time (CST) Temp. Windchill Dew Point Humidity Pressure Visibility Wind Dir Wind Speed Gust Speed Precip Events Conditions
12:15 AM 15.8 °F 1.4 °F 6.8 °F 68% 30.19 in 10.0 mi NNW 13.8 mph 20.7 mph N/A   Clear
12:35 AM 15.8 °F 2.1 °F 6.8 °F 68% 30.20 in 10.0 mi NNW 12.7 mph - N/A   Clear
12:55 AM 15.8 °F 2.1 °F 6.8 °F 68% 30.20 in 10.0 mi NNW 12.7 mph 20.7 mph N/A   Clear
1:15 AM 14.0 °F 0.5 °F 6.8 °F 73% 30.20 in 10.0 mi NNW 11.5 mph 19.6 mph N/A Snow Light Snow
1:55 AM 14.0 °F 1.2 °F 5.0 °F 67% 30.21 in 10.0 mi NNW 10.4 mph - N/A   Clear
2:15 AM 14.0 °F 1.2 °F 5.0 °F 67% 30.22 in 10.0 mi NNW 10.4 mph - N/A   Clear
2:35 AM 14.0 °F -0.2 °F 5.0 °F 67% 30.22 in 10.0 mi NNW 12.7 mph - N/A   Clear
2:55 AM 14.0 °F 2.0 °F 5.0 °F 67% 30.22 in 10.0 mi NNW 9.2 mph - N/A   Clear
3:15 AM 12.2 °F -1.0 °F 5.0 °F 73% 30.22 in 10.0 mi NNW 10.4 mph - N/A   Clear
3:35 AM 12.2 °F -1.8 °F 5.0 °F 73% 30.22 in 10.0 mi NNW 11.5 mph - N/A   Clear
4:15 AM 12.2 °F -1.8 °F 6.8 °F 79% 30.22 in 10.0 mi NNW 11.5 mph - N/A   Clear
4:35 AM 12.2 °F -0.2 °F 6.8 °F 79% 30.22 in 10.0 mi NW 9.2 mph - N/A   Clear
4:55 AM 12.2 °F 0.7 °F 6.8 °F 79% 30.23 in 10.0 mi NW 8.1 mph - N/A Snow Light Snow
5:15 AM 10.4 °F -3.3 °F 5.0 °F 79% 30.24 in 10.0 mi NW 10.4 mph - N/A Snow Light Snow
5:35 AM 10.4 °F -4.8 °F 5.0 °F 79% 30.24 in 10.0 mi NW 12.7 mph - N/A Snow Light Snow
5:55 AM 10.4 °F -3.3 °F 5.0 °F 79% 30.25 in 10.0 mi NW 10.4 mph - N/A Snow Light Snow
6:15 AM 10.4 °F -4.1 °F 5.0 °F 79% 30.25 in 10.0 mi NW 11.5 mph - N/A   Mostly Cloudy
6:35 AM 10.4 °F -3.3 °F 5.0 °F 79% 30.25 in 10.0 mi NNW 10.4 mph - N/A   Overcast
6:55 AM 12.2 °F -1.8 °F 5.0 °F 73% 30.25 in 10.0 mi NW 11.5 mph - N/A   Overcast
7:15 AM 12.2 °F -2.5 °F 5.0 °F 73% 30.26 in 10.0 mi NNW 12.7 mph - N/A Snow Light Snow
7:35 AM 12.2 °F -1.0 °F 5.0 °F 73% 30.26 in 10.0 mi NW 10.4 mph 16.1 mph N/A Snow Light Snow
7:55 AM 12.2 °F -0.2 °F 6.8 °F 79% 30.26 in 10.0 mi NW 9.2 mph - N/A   Partly Cloudy
8:15 AM 12.2 °F -1.8 °F 6.8 °F 79% 30.27 in 10.0 mi NW 11.5 mph - N/A   Partly Cloudy
8:35 AM 12.2 °F -3.1 °F 6.8 °F 79% 30.28 in 10.0 mi NNW 13.8 mph - N/A   Partly Cloudy
8:55 AM 14.0 °F 0.5 °F 6.8 °F 73% 30.28 in 10.0 mi NNW 11.5 mph - N/A   Clear
9:15 AM 14.0 °F - 6.8 °F 73% 30.28 in 10.0 mi North - - N/A   Clear
9:35 AM 14.0 °F -1.4 °F 8.6 °F 79% 30.28 in 10.0 mi NNW 15.0 mph - N/A   Clear
9:55 AM 15.8 °F 1.4 °F 8.6 °F 73% 30.28 in 10.0 mi NNW 13.8 mph - N/A   Clear
10:15 AM 15.8 °F 1.4 °F 8.6 °F 73% 30.29 in 10.0 mi NNW 13.8 mph 19.6 mph N/A   Clear
10:35 AM 17.6 °F 4.3 °F 10.4 °F 73% 30.29 in 10.0 mi NNW 12.7 mph - N/A   Clear
10:55 AM 17.6 °F 3.2 °F 10.4 °F 73% 30.29 in 10.0 mi NNW 15.0 mph - N/A   Clear
11:15 AM 17.6 °F 3.7 °F 10.4 °F 73% 30.29 in 10.0 mi NNW 13.8 mph - N/A   Partly Cloudy
11:55 AM 19.4 °F 6.0 °F 10.4 °F 68% 30.28 in 10.0 mi NNW 13.8 mph - N/A   Partly Cloudy
12:15 PM 19.4 °F 6.6 °F 12.2 °F 74% 30.28 in 10.0 mi NNW 12.7 mph - N/A   Mostly Cloudy
12:35 PM 21.2 °F 7.3 °F 12.2 °F 68% 30.27 in 10.0 mi North 16.1 mph - N/A   Mostly Cloudy
12:55 PM 21.2 °F 8.3 °F 12.2 °F 68% 30.27 in 10.0 mi NNW 13.8 mph - N/A   Mostly Cloudy
1:15 PM 21.2 °F 8.3 °F 12.2 °F 68% 30.27 in 10.0 mi NNW 13.8 mph - N/A   Mostly Cloudy
1:35 PM 21.2 °F 8.3 °F 12.2 °F 68% 30.27 in 10.0 mi NW 13.8 mph - N/A   Overcast
1:55 PM 21.2 °F 9.5 °F 10.4 °F 63% 30.27 in 10.0 mi NW 11.5 mph 18.4 mph N/A   Overcast
2:15 PM 21.2 °F 8.9 °F 12.2 °F 68% 30.27 in 10.0 mi NNW 12.7 mph 18.4 mph N/A   Overcast
2:35 PM 21.2 °F 8.3 °F 12.2 °F 68% 30.27 in 10.0 mi NNW 13.8 mph 19.6 mph N/A   Overcast
2:55 PM 21.2 °F 8.9 °F 12.2 °F 68% 30.27 in 10.0 mi NNW 12.7 mph - N/A   Overcast
3:15 PM 21.2 °F 10.1 °F 12.2 °F 68% 30.28 in 10.0 mi NNW 10.4 mph 19.6 mph N/A   Overcast
3:35 PM 21.2 °F 6.8 °F 12.2 °F 68% 30.28 in 10.0 mi NNW 17.3 mph - N/A   Mostly Cloudy
3:55 PM 21.2 °F 8.9 °F 10.4 °F 63% 30.28 in 10.0 mi NNW 12.7 mph 19.6 mph N/A   Mostly Cloudy
4:15 PM 21.2 °F 8.3 °F 10.4 °F 63% 30.28 in 10.0 mi NW 13.8 mph - N/A   Mostly Cloudy
4:35 PM 21.2 °F 7.3 °F 10.4 °F 63% 30.29 in 10.0 mi NNW 16.1 mph - N/A   Mostly Cloudy
4:55 PM 19.4 °F 6.6 °F 10.4 °F 68% 30.29 in 10.0 mi NNW 12.7 mph - N/A   Mostly Cloudy
5:15 PM 19.4 °F 5.0 °F 10.4 °F 68% 30.29 in 10.0 mi NNW 16.1 mph - N/A   Mostly Cloudy
5:35 PM 19.4 °F 6.0 °F 10.4 °F 68% 30.29 in 10.0 mi NNW 13.8 mph - N/A   Mostly Cloudy
5:55 PM 19.4 °F 6.6 °F 12.2 °F 74% 30.29 in 10.0 mi NW 12.7 mph - N/A   Overcast
6:15 PM 17.6 °F 3.7 °F 10.4 °F 73% 30.29 in 10.0 mi NNW 13.8 mph 19.6 mph N/A   Mostly Cloudy
6:35 PM 17.6 °F 4.3 °F 10.4 °F 73% 30.29 in 10.0 mi NNW 12.7 mph - N/A   Scattered Clouds
6:55 PM 17.6 °F 4.3 °F 10.4 °F 73% 30.29 in 10.0 mi NNW 12.7 mph - N/A   Partly Cloudy
7:15 PM 15.8 °F 2.1 °F 10.4 °F 79% 30.29 in 10.0 mi NNW 12.7 mph - N/A   Clear
7:35 PM 15.8 °F 2.7 °F 10.4 °F 79% 30.29 in 10.0 mi NNW 11.5 mph 17.3 mph N/A   Clear
7:55 PM 15.8 °F 5.1 °F 10.4 °F 79% 30.29 in 10.0 mi NNW 8.1 mph - N/A   Clear
8:15 PM 15.8 °F 4.2 °F 10.4 °F 79% 30.29 in 10.0 mi NW 9.2 mph - N/A   Clear
8:35 PM 15.8 °F 4.2 °F 8.6 °F 73% 30.29 in 10.0 mi NNW 9.2 mph - N/A   Clear
8:55 PM 14.0 °F 3.9 °F 8.6 °F 79% 30.29 in 10.0 mi NW 6.9 mph - N/A   Clear
9:15 PM 14.0 °F 5.1 °F 8.6 °F 79% 30.29 in 10.0 mi NW 5.8 mph - N/A   Clear
9:35 PM 14.0 °F 2.9 °F 8.6 °F 79% 30.29 in 10.0 mi NW 8.1 mph - N/A   Clear
9:55 PM 14.0 °F 3.9 °F 8.6 °F 79% 30.29 in 10.0 mi NW 6.9 mph - N/A   Clear
10:15 PM 14.0 °F 5.1 °F 8.6 °F 79% 30.28 in 10.0 mi NW 5.8 mph - N/A   Clear
10:35 PM 12.2 °F 0.7 °F 8.6 °F 85% 30.28 in 10.0 mi NW 8.1 mph - N/A   Clear
10:55 PM 12.2 °F -0.2 °F 8.6 °F 85% 30.28 in 10.0 mi NW 9.2 mph - N/A   Clear
11:15 PM 12.2 °F 1.7 °F 8.6 °F 85% 30.27 in 10.0 mi NW 6.9 mph - N/A   Clear
11:35 PM 12.2 °F 1.7 °F 8.6 °F 85% 30.27 in 10.0 mi NW 6.9 mph - N/A   Clear
11:55 PM 12.2 °F 4.3 °F 8.6 °F 85% 30.26 in 10.0 mi NW 4.6 mph - N/A   Clear